createdAt,value
2023-01-10T00:04:59.727Z,3.20
2023-01-10T00:10:01.267Z,3.08
2023-01-10T00:15:02.851Z,3.80
2023-01-10T00:20:04.736Z,3.58
2023-01-10T00:25:06.790Z,3.15
2023-01-10T00:30:17.870Z,3.47
2023-01-10T00:35:20.081Z,3.88
2023-01-10T00:40:21.642Z,3.40
2023-01-10T00:45:24.947Z,3.17
2023-01-10T00:50:26.428Z,3.97
2023-01-10T00:55:28.501Z,3.45
2023-01-10T01:00:30.139Z,3.50
2023-01-10T01:05:31.676Z,3.70
2023-01-10T01:10:33.210Z,3.20
2023-01-10T01:15:35.576Z,3.78
2023-01-10T01:20:39.201Z,3.53
2023-01-10T01:25:41.210Z,4.30
2023-01-10T01:30:42.877Z,3.40
2023-01-10T01:35:46.462Z,3.53
2023-01-10T01:40:48.012Z,4.03
2023-01-10T01:45:49.619Z,4.43
2023-01-10T01:51:07.744Z,4.00
2023-01-10T01:56:24.260Z,3.70
2023-01-10T02:01:27.707Z,4.13
2023-01-10T02:06:29.785Z,3.33
2023-01-10T02:11:31.740Z,3.38
2023-01-10T02:16:33.253Z,4.30
2023-01-10T02:22:02.486Z,4.13
2023-01-10T02:27:19.997Z,4.78
2023-01-10T02:32:47.944Z,4.53
2023-01-10T02:38:07.934Z,5.35
2023-01-10T02:43:14.961Z,4.25
2023-01-10T02:48:18.067Z,5.23
2023-01-10T02:53:40.678Z,4.57
2023-01-10T02:59:21.515Z,4.82
2023-01-10T03:04:27.135Z,4.57
2023-01-10T03:09:55.096Z,3.97
2023-01-10T03:14:59.254Z,5.20
2023-01-10T03:20:05.276Z,5.03
2023-01-10T03:25:09.284Z,4.32
2023-01-10T03:30:14.151Z,4.93
2023-01-10T03:35:16.774Z,5.15
2023-01-10T03:40:22.678Z,4.85
2023-01-10T03:45:31.031Z,4.88
2023-01-10T03:50:33.797Z,5.05
2023-01-10T03:55:37.188Z,3.75
2023-01-10T04:00:39.489Z,4.10
2023-01-10T04:05:40.992Z,4.50
2023-01-10T04:10:42.482Z,5.60
2023-01-10T04:15:44.003Z,5.07
2023-01-10T04:20:45.557Z,4.65
2023-01-10T04:25:47.869Z,5.22
2023-01-10T04:30:49.431Z,4.55
2023-01-10T04:35:52.186Z,4.55
2023-01-10T04:40:55.279Z,4.65
2023-01-10T04:45:56.855Z,4.60
2023-01-10T04:50:58.416Z,4.97
2023-01-10T04:56:07.641Z,4.78
2023-01-10T05:01:15.097Z,4.60
2023-01-10T05:06:17.348Z,3.92
2023-01-10T05:11:18.952Z,4.32
2023-01-10T05:16:20.565Z,5.97
2023-01-10T05:21:22.125Z,5.13
2023-01-10T05:26:23.973Z,4.97
2023-01-10T05:31:25.578Z,4.97
2023-01-10T05:36:27.126Z,4.65
2023-01-10T05:41:28.650Z,5.70
2023-01-10T05:46:30.206Z,4.72
2023-01-10T05:51:31.764Z,4.50
2023-01-10T05:56:33.246Z,5.07
2023-01-10T06:01:34.846Z,4.97
2023-01-10T06:06:36.372Z,5.05
2023-01-10T06:11:38.904Z,4.63
2023-01-10T06:16:41.747Z,5.28
2023-01-10T06:21:43.291Z,4.95
2023-01-10T06:26:44.945Z,4.00
2023-01-10T06:31:46.468Z,4.43
2023-01-10T06:36:48.155Z,4.72
2023-01-10T06:41:49.621Z,4.43
2023-01-10T06:46:51.797Z,4.72
2023-01-10T06:51:53.283Z,5.38
2023-01-10T06:56:54.864Z,5.05
2023-01-10T07:01:56.867Z,4.32
2023-01-10T07:06:58.486Z,4.50
2023-01-10T07:12:00.009Z,4.18
2023-01-10T07:17:01.519Z,5.63
2023-01-10T07:22:03.541Z,5.00
2023-01-10T07:27:05.174Z,5.25
2023-01-10T07:32:06.668Z,4.38
2023-01-10T07:37:08.261Z,5.18
2023-01-10T07:42:10.175Z,4.50
2023-01-10T07:47:11.726Z,5.20
2023-01-10T07:52:13.208Z,4.20
2023-01-10T07:57:15.614Z,5.15
2023-01-10T08:02:17.137Z,6.82
2023-01-10T08:07:18.912Z,4.47
2023-01-10T08:12:21.075Z,4.78
2023-01-10T08:17:23.016Z,5.97
2023-01-10T08:22:24.562Z,5.75
2023-01-10T08:27:26.129Z,5.35
2023-01-10T08:32:27.735Z,5.45
2023-01-10T08:37:29.318Z,4.43
2023-01-10T08:42:30.929Z,5.13
2023-01-10T08:47:32.465Z,5.60
2023-01-10T08:52:34.097Z,4.65
2023-01-10T08:57:35.762Z,4.78
2023-01-10T09:02:37.341Z,4.53
2023-01-10T09:07:41.199Z,4.57
2023-01-10T09:12:54.922Z,5.30
2023-01-10T09:17:58.417Z,4.65
2023-01-10T09:23:08.573Z,6.80
2023-01-10T09:28:10.133Z,5.03
2023-01-10T09:33:12.267Z,6.25
2023-01-10T09:38:16.459Z,5.72
2023-01-10T09:43:29.840Z,5.55
2023-01-10T09:48:49.450Z,5.40
2023-01-10T09:53:57.775Z,7.28
2023-01-10T09:59:03.146Z,7.07
2023-01-10T10:04:25.868Z,6.60
2023-01-10T10:09:35.218Z,5.50
2023-01-10T10:14:55.088Z,6.78
2023-01-10T10:20:18.139Z,6.88
2023-01-10T10:25:44.560Z,6.85
2023-01-10T10:31:30.435Z,7.15
2023-01-10T10:36:56.025Z,7.95
2023-01-10T10:41:58.059Z,7.57
2023-01-10T10:47:00.788Z,7.78
2023-01-10T10:52:12.240Z,6.68
2023-01-10T10:57:14.030Z,7.22
2023-01-10T11:02:28.313Z,6.22
2023-01-10T11:07:36.874Z,7.10
2023-01-10T11:12:45.083Z,7.50
2023-01-10T11:18:07.084Z,10.30
2023-01-10T11:23:11.695Z,7.95
2023-01-10T11:28:14.476Z,7.35
2023-01-10T11:33:23.290Z,7.32
2023-01-10T11:38:29.953Z,6.95
2023-01-10T11:43:34.776Z,7.15
2023-01-10T11:49:08.482Z,6.78
2023-01-10T11:54:24.091Z,5.75
2023-01-10T11:59:27.385Z,6.03
2023-01-10T12:04:32.148Z,5.65
2023-01-10T12:09:35.366Z,5.85
2023-01-10T12:14:36.862Z,5.30
2023-01-10T12:19:38.356Z,5.05
2023-01-10T12:24:44.198Z,6.63
2023-01-10T12:30:14.429Z,5.45
2023-01-10T12:35:22.255Z,6.15
2023-01-10T12:40:45.574Z,5.95
2023-01-10T12:45:53.297Z,5.30
2023-01-10T12:56:05.852Z,5.60
2023-01-10T13:01:09.510Z,4.85
2023-01-10T13:06:30.430Z,5.10
2023-01-10T13:11:40.461Z,5.13
2023-01-10T13:16:58.192Z,5.05
2023-01-10T13:22:22.912Z,5.47
2023-01-10T13:27:29.247Z,5.43
2023-01-10T13:32:34.575Z,5.03
2023-01-10T13:37:40.113Z,4.43
2023-01-10T13:43:00.461Z,4.85
2023-01-10T13:48:04.607Z,5.57
2023-01-10T13:53:09.179Z,5.97
2023-01-10T13:58:13.392Z,4.55
2023-01-10T14:03:42.818Z,4.85
2023-01-10T14:08:56.139Z,4.32
2023-01-10T14:14:01.669Z,3.75
2023-01-10T14:19:07.715Z,4.25
2023-01-10T14:24:24.768Z,4.82
2023-01-10T14:29:31.652Z,4.95
2023-01-10T14:34:37.087Z,6.13
2023-01-10T14:39:41.537Z,6.40
2023-01-10T14:44:53.940Z,5.25
2023-01-10T14:50:01.049Z,5.57
2023-01-10T14:55:17.687Z,5.28
2023-01-10T15:00:21.278Z,4.00
2023-01-10T15:05:28.443Z,4.63
2023-01-10T15:10:41.319Z,4.05
2023-01-10T15:15:45.736Z,4.15
2023-01-10T15:20:48.275Z,4.50
2023-01-10T15:25:59.546Z,5.03
2023-01-10T15:31:01.521Z,5.20
2023-01-10T15:36:12.362Z,3.63
2023-01-10T15:41:20.374Z,4.10
2023-01-10T15:46:24.402Z,5.13
2023-01-10T15:51:34.454Z,3.97
2023-01-10T15:56:42.408Z,4.50
2023-01-10T16:01:53.302Z,4.50
2023-01-10T16:07:06.946Z,4.68
2023-01-10T16:12:43.605Z,4.18
2023-01-10T16:17:46.160Z,3.85
2023-01-10T16:22:48.941Z,4.20
2023-01-10T16:27:50.462Z,4.13
2023-01-10T16:32:52.628Z,3.85
2023-01-10T16:37:56.445Z,3.95
2023-01-10T16:43:18.227Z,4.35
2023-01-10T16:48:21.363Z,8.00
2023-01-10T16:53:22.922Z,5.82
2023-01-10T16:58:24.388Z,5.82
2023-01-10T17:03:26.848Z,5.28
2023-01-10T17:08:28.407Z,3.55
2023-01-10T17:13:33.920Z,2.28
2023-01-10T17:18:36.993Z,2.40
2023-01-10T17:23:41.894Z,2.60
2023-01-10T17:28:45.865Z,2.10
2023-01-10T17:33:49.048Z,3.13
2023-01-10T17:38:50.604Z,2.70
2023-01-10T17:43:52.145Z,3.05
2023-01-10T17:48:53.847Z,2.53
2023-01-10T17:53:55.791Z,1.90
2023-01-10T17:58:57.247Z,2.28
2023-01-10T18:03:58.785Z,2.22
2023-01-10T18:09:00.921Z,3.80
2023-01-10T18:14:24.379Z,4.13
2023-01-10T18:19:25.893Z,4.80
2023-01-10T18:24:27.657Z,10.65
2023-01-10T18:29:29.223Z,5.40
2023-01-10T18:34:30.718Z,6.90
2023-01-10T18:39:32.277Z,9.80
2023-01-10T18:44:33.846Z,11.88
2023-01-10T18:49:35.464Z,12.20
2023-01-10T18:54:37.036Z,10.52
2023-01-10T18:59:39.893Z,10.30
2023-01-10T19:04:41.707Z,17.75
2023-01-10T19:09:43.282Z,9.85
2023-01-10T19:14:44.837Z,10.48
2023-01-10T19:19:46.330Z,11.63
2023-01-10T19:24:47.927Z,11.88
2023-01-10T19:29:49.934Z,11.90
2023-01-10T19:34:51.461Z,12.60
2023-01-10T19:39:52.967Z,22.58
2023-01-10T19:44:54.505Z,16.77
2023-01-10T19:49:56.021Z,18.05
2023-01-10T19:54:57.534Z,17.27
2023-01-10T19:59:59.020Z,17.65
2023-01-10T20:05:02.339Z,19.10
2023-01-10T20:10:04.204Z,19.08
2023-01-10T20:15:06.360Z,18.52
2023-01-10T20:20:08.444Z,19.73
2023-01-10T20:25:10.164Z,18.42
2023-01-10T20:30:13.998Z,17.73
2023-01-10T20:35:15.545Z,16.63
2023-01-10T20:40:17.164Z,17.40
2023-01-10T20:45:18.717Z,15.02
2023-01-10T20:50:20.638Z,15.18
2023-01-10T20:55:22.305Z,15.90
2023-01-10T21:00:23.949Z,15.25
2023-01-10T21:05:25.607Z,16.50
2023-01-10T21:10:27.125Z,16.35
2023-01-10T21:15:28.694Z,17.48
2023-01-10T21:20:30.302Z,17.92
2023-01-10T21:25:31.849Z,18.02
2023-01-10T21:30:33.357Z,17.23
2023-01-10T21:35:34.993Z,17.55
2023-01-10T21:40:36.538Z,17.38
2023-01-10T21:45:38.086Z,17.27
2023-01-10T21:50:40.003Z,14.88
2023-01-10T21:55:43.965Z,15.27
2023-01-10T22:00:45.515Z,16.15
2023-01-10T22:05:47.043Z,16.85
2023-01-10T22:10:48.788Z,16.17
2023-01-10T22:15:57.382Z,16.17
2023-01-10T22:20:59.371Z,15.75
2023-01-10T22:26:06.818Z,15.00
2023-01-10T22:31:08.600Z,16.52
2023-01-10T22:36:15.429Z,16.10
2023-01-10T22:41:19.810Z,15.83
2023-01-10T22:46:22.234Z,15.30
2023-01-10T22:51:24.905Z,14.68
2023-01-10T22:56:27.254Z,15.18
2023-01-10T23:01:28.761Z,14.85
2023-01-10T23:06:30.253Z,15.52
2023-01-10T23:11:31.791Z,16.48
2023-01-10T23:16:33.318Z,17.73
2023-01-10T23:21:34.835Z,17.15
2023-01-10T23:26:36.393Z,16.33
2023-01-10T23:31:37.917Z,15.77
2023-01-10T23:36:39.434Z,15.52
2023-01-10T23:41:40.914Z,15.98
2023-01-10T23:46:42.413Z,15.48
2023-01-10T23:51:43.863Z,13.43
2023-01-10T23:56:45.434Z,12.55
